sensor_id;sensor_type;location;lat;lon;timestamp;pressure;altitude;pressure_sealevel;temperature;humidity
35758;BME280;21879;50.110;18.900;2023-03-02T00:03:22;99493.42;;;0.63;55.40
35758;BME280;21879;50.110;18.900;2023-03-02T00:13:47;99481.73;;;0.70;55.65
35758;BME280;21879;50.110;18.900;2023-03-02T00:24:11;99479.63;;;0.81;55.83
35758;BME280;21879;50.110;18.900;2023-03-02T00:34:38;99484.77;;;0.85;56.01
35758;BME280;21879;50.110;18.900;2023-03-02T00:45:04;99478.89;;;0.68;55.55
35758;BME280;21879;50.110;18.900;2023-03-02T00:55:28;99469.68;;;0.61;55.79
35758;BME280;21879;50.110;18.900;2023-03-02T01:05:52;99463.54;;;0.53;55.96
35758;BME280;21879;50.110;18.900;2023-03-02T01:16:17;99455.02;;;0.42;55.70
35758;BME280;21879;50.110;18.900;2023-03-02T01:26:42;99444.20;;;0.37;56.18
35758;BME280;21879;50.110;18.900;2023-03-02T01:37:06;99428.64;;;0.17;55.83
35758;BME280;21879;50.110;18.900;2023-03-02T01:47:32;99420.55;;;0.08;56.33
35758;BME280;21879;50.110;18.900;2023-03-02T01:57:58;99411.52;;;0.20;56.24
35758;BME280;21879;50.110;18.900;2023-03-02T02:08:24;99401.36;;;0.15;56.02
35758;BME280;21879;50.110;18.900;2023-03-02T02:18:49;99386.54;;;0.12;55.92
35758;BME280;21879;50.110;18.900;2023-03-02T02:29:14;99382.42;;;0.04;56.20
35758;BME280;21879;50.110;18.900;2023-03-02T02:39:47;99379.61;;;-0.02;56.15
35758;BME280;21879;50.110;18.900;2023-03-02T02:50:17;99377.55;;;-0.10;56.11
35758;BME280;21879;50.110;18.900;2023-03-02T03:00:42;99380.25;;;-0.18;56.02
35758;BME280;21879;50.110;18.900;2023-03-02T03:11:07;99380.61;;;-0.38;55.90
35758;BME280;21879;50.110;18.900;2023-03-02T03:21:32;99363.50;;;-0.50;56.13
35758;BME280;21879;50.110;18.900;2023-03-02T03:31:58;99357.55;;;-0.60;56.15
35758;BME280;21879;50.110;18.900;2023-03-02T03:42:23;99362.54;;;-0.89;55.72
35758;BME280;21879;50.110;18.900;2023-03-02T03:52:47;99357.16;;;-1.46;56.26
35758;BME280;21879;50.110;18.900;2023-03-02T04:03:12;99350.50;;;-1.38;56.84
35758;BME280;21879;50.110;18.900;2023-03-02T04:13:36;99347.70;;;-1.19;56.78
35758;BME280;21879;50.110;18.900;2023-03-02T04:24:00;99347.54;;;-0.96;57.02
35758;BME280;21879;50.110;18.900;2023-03-02T04:34:24;99349.36;;;-0.72;56.79
35758;BME280;21879;50.110;18.900;2023-03-02T04:44:49;99349.80;;;-0.69;56.44
35758;BME280;21879;50.110;18.900;2023-03-02T04:55:18;99333.08;;;-0.84;56.22
35758;BME280;21879;50.110;18.900;2023-03-02T05:05:43;99323.96;;;-0.89;56.41
35758;BME280;21879;50.110;18.900;2023-03-02T05:16:08;99326.79;;;-0.80;56.55
35758;BME280;21879;50.110;18.900;2023-03-02T05:26:32;99337.27;;;-0.75;56.35
35758;BME280;21879;50.110;18.900;2023-03-02T05:36:57;99339.35;;;-0.85;56.19
35758;BME280;21879;50.110;18.900;2023-03-02T05:47:21;99342.42;;;-0.97;56.27
35758;BME280;21879;50.110;18.900;2023-03-02T05:57:45;99341.09;;;-0.92;56.58
35758;BME280;21879;50.110;18.900;2023-03-02T06:08:11;99351.93;;;-0.79;56.45
35758;BME280;21879;50.110;18.900;2023-03-02T06:18:36;99358.18;;;-0.80;56.50
35758;BME280;21879;50.110;18.900;2023-03-02T06:29:04;99367.14;;;-0.68;56.74
35758;BME280;21879;50.110;18.900;2023-03-02T06:39:29;99372.40;;;-0.57;56.79
35758;BME280;21879;50.110;18.900;2023-03-02T06:49:53;99375.98;;;-0.34;57.42
35758;BME280;21879;50.110;18.900;2023-03-02T07:00:19;99372.73;;;0.01;58.24
35758;BME280;21879;50.110;18.900;2023-03-02T07:10:49;99370.71;;;0.51;58.50
35758;BME280;21879;50.110;18.900;2023-03-02T07:21:14;99373.38;;;1.01;58.91
35758;BME280;21879;50.110;18.900;2023-03-02T07:31:39;99359.69;;;1.69;59.03
35758;BME280;21879;50.110;18.900;2023-03-02T07:42:04;99351.30;;;2.28;59.02
35758;BME280;21879;50.110;18.900;2023-03-02T07:52:31;99353.05;;;2.82;59.23
35758;BME280;21879;50.110;18.900;2023-03-02T08:02:56;99342.73;;;3.20;57.39
35758;BME280;21879;50.110;18.900;2023-03-02T08:13:21;99335.05;;;3.52;56.60
35758;BME280;21879;50.110;18.900;2023-03-02T08:23:45;99334.20;;;3.89;56.03
35758;BME280;21879;50.110;18.900;2023-03-02T08:34:10;99331.63;;;4.15;54.62
35758;BME280;21879;50.110;18.900;2023-03-02T08:44:35;99329.27;;;4.24;53.09
35758;BME280;21879;50.110;18.900;2023-03-02T08:55:01;99324.98;;;4.38;52.55
35758;BME280;21879;50.110;18.900;2023-03-02T09:05:28;99322.02;;;4.51;52.08
35758;BME280;21879;50.110;18.900;2023-03-02T09:15:52;99321.98;;;4.78;52.45
35758;BME280;21879;50.110;18.900;2023-03-02T09:26:17;99318.08;;;5.11;51.47
35758;BME280;21879;50.110;18.900;2023-03-02T09:36:42;99316.40;;;5.45;50.69
35758;BME280;21879;50.110;18.900;2023-03-02T09:47:13;99306.32;;;5.50;48.78
35758;BME280;21879;50.110;18.900;2023-03-02T09:57:58;99300.15;;;5.60;48.05
35758;BME280;21879;50.110;18.900;2023-03-02T10:08:27;99284.52;;;5.81;47.91
35758;BME280;21879;50.110;18.900;2023-03-02T10:19:00;99272.92;;;6.07;47.02
35758;BME280;21879;50.110;18.900;2023-03-02T10:29:44;99269.34;;;6.19;45.93
35758;BME280;21879;50.110;18.900;2023-03-02T10:40:25;99253.98;;;6.29;44.61
35758;BME280;21879;50.110;18.900;2023-03-02T10:50:54;99233.51;;;6.45;44.43
35758;BME280;21879;50.110;18.900;2023-03-02T11:01:19;99229.31;;;6.66;43.95
35758;BME280;21879;50.110;18.900;2023-03-02T11:11:49;99208.61;;;6.68;42.58
35758;BME280;21879;50.110;18.900;2023-03-02T11:22:25;99195.79;;;6.77;41.94
35758;BME280;21879;50.110;18.900;2023-03-02T11:32:54;99185.23;;;6.91;43.11
35758;BME280;21879;50.110;18.900;2023-03-02T11:43:21;99167.55;;;7.14;43.91
35758;BME280;21879;50.110;18.900;2023-03-02T11:53:47;99157.11;;;7.24;43.79
35758;BME280;21879;50.110;18.900;2023-03-02T12:04:27;99146.73;;;7.25;43.81
35758;BME280;21879;50.110;18.900;2023-03-02T12:14:52;99133.81;;;7.30;44.17
35758;BME280;21879;50.110;18.900;2023-03-02T12:25:34;99121.83;;;7.40;43.85
35758;BME280;21879;50.110;18.900;2023-03-02T12:36:09;99105.70;;;7.57;44.22
35758;BME280;21879;50.110;18.900;2023-03-02T12:46:36;99090.13;;;7.75;44.13
35758;BME280;21879;50.110;18.900;2023-03-02T12:57:05;99080.90;;;7.91;43.60
35758;BME280;21879;50.110;18.900;2023-03-02T13:07:35;99067.13;;;8.04;43.54
35758;BME280;21879;50.110;18.900;2023-03-02T13:18:01;99051.23;;;8.09;43.36
35758;BME280;21879;50.110;18.900;2023-03-02T13:28:28;99033.27;;;8.20;43.20
35758;BME280;21879;50.110;18.900;2023-03-02T13:38:56;99018.75;;;8.25;43.48
35758;BME280;21879;50.110;18.900;2023-03-02T13:49:29;99003.84;;;8.23;43.19
35758;BME280;21879;50.110;18.900;2023-03-02T13:59:55;98991.04;;;8.26;43.31
35758;BME280;21879;50.110;18.900;2023-03-02T14:10:20;98983.95;;;8.32;43.72
35758;BME280;21879;50.110;18.900;2023-03-02T14:20:46;98974.98;;;8.35;44.28
35758;BME280;21879;50.110;18.900;2023-03-02T14:31:11;98965.64;;;8.39;44.34
35758;BME280;21879;50.110;18.900;2023-03-02T14:41:36;98956.61;;;8.37;44.35
35758;BME280;21879;50.110;18.900;2023-03-02T14:52:25;98951.61;;;8.39;44.59
35758;BME280;21879;50.110;18.900;2023-03-02T15:02:53;98945.91;;;8.43;43.95
35758;BME280;21879;50.110;18.900;2023-03-02T15:13:18;98937.95;;;8.45;43.67
35758;BME280;21879;50.110;18.900;2023-03-02T15:23:43;98936.56;;;8.46;44.16
35758;BME280;21879;50.110;18.900;2023-03-02T15:34:07;98940.89;;;8.47;44.14
35758;BME280;21879;50.110;18.900;2023-03-02T15:44:32;98938.62;;;8.43;43.95
35758;BME280;21879;50.110;18.900;2023-03-02T15:54:57;98944.96;;;8.30;43.94
35758;BME280;21879;50.110;18.900;2023-03-02T16:05:21;98943.56;;;8.23;43.93
35758;BME280;21879;50.110;18.900;2023-03-02T16:15:45;98938.73;;;8.28;44.25
35758;BME280;21879;50.110;18.900;2023-03-02T16:26:13;98940.14;;;8.33;44.78
35758;BME280;21879;50.110;18.900;2023-03-02T16:36:38;98942.98;;;8.43;45.33
35758;BME280;21879;50.110;18.900;2023-03-02T16:47:04;98948.55;;;8.56;45.36
35758;BME280;21879;50.110;18.900;2023-03-02T16:57:28;98951.11;;;8.45;45.83
35758;BME280;21879;50.110;18.900;2023-03-02T17:07:53;98962.02;;;8.06;45.76
35758;BME280;21879;50.110;18.900;2023-03-02T17:18:20;98978.86;;;7.56;45.35
35758;BME280;21879;50.110;18.900;2023-03-02T17:28:44;98986.02;;;7.19;46.06
35758;BME280;21879;50.110;18.900;2023-03-02T17:39:09;98990.85;;;6.80;46.11
35758;BME280;21879;50.110;18.900;2023-03-02T17:49:33;98989.73;;;6.56;46.86
35758;BME280;21879;50.110;18.900;2023-03-02T18:00:00;98993.25;;;6.33;47.82
35758;BME280;21879;50.110;18.900;2023-03-02T18:10:25;98992.31;;;6.00;47.92
35758;BME280;21879;50.110;18.900;2023-03-02T18:20:49;98988.52;;;5.77;48.14
35758;BME280;21879;50.110;18.900;2023-03-02T18:31:15;98983.77;;;5.59;48.62
35758;BME280;21879;50.110;18.900;2023-03-02T18:41:42;98998.66;;;5.29;49.18
35758;BME280;21879;50.110;18.900;2023-03-02T18:52:06;99000.52;;;4.97;50.25
35758;BME280;21879;50.110;18.900;2023-03-02T19:02:33;98999.09;;;4.84;50.82
35758;BME280;21879;50.110;18.900;2023-03-02T19:12:57;99009.00;;;4.80;50.75
35758;BME280;21879;50.110;18.900;2023-03-02T19:23:22;99017.94;;;4.70;50.58
35758;BME280;21879;50.110;18.900;2023-03-02T19:33:46;99017.24;;;4.52;51.31
35758;BME280;21879;50.110;18.900;2023-03-02T19:44:11;99017.80;;;4.62;51.79
35758;BME280;21879;50.110;18.900;2023-03-02T19:54:35;99020.17;;;4.70;51.53
35758;BME280;21879;50.110;18.900;2023-03-02T20:05:00;99018.52;;;4.46;51.74
35758;BME280;21879;50.110;18.900;2023-03-02T20:15:36;99020.20;;;4.19;52.38
35758;BME280;21879;50.110;18.900;2023-03-02T20:26:01;99027.77;;;3.88;52.55
35758;BME280;21879;50.110;18.900;2023-03-02T20:36:28;99021.73;;;3.79;53.12
35758;BME280;21879;50.110;18.900;2023-03-02T20:46:56;99010.17;;;3.78;53.38
35758;BME280;21879;50.110;18.900;2023-03-02T20:57:21;99008.30;;;3.78;53.38
35758;BME280;21879;50.110;18.900;2023-03-02T21:07:46;99013.59;;;3.68;53.93
35758;BME280;21879;50.110;18.900;2023-03-02T21:18:11;99010.45;;;3.74;54.43
35758;BME280;21879;50.110;18.900;2023-03-02T21:28:36;98998.80;;;3.69;54.41
35758;BME280;21879;50.110;18.900;2023-03-02T21:39:02;98999.97;;;3.52;54.89
35758;BME280;21879;50.110;18.900;2023-03-02T21:49:27;98995.41;;;3.48;54.98
35758;BME280;21879;50.110;18.900;2023-03-02T21:59:51;98985.85;;;3.51;55.06
35758;BME280;21879;50.110;18.900;2023-03-02T22:10:23;98988.16;;;3.46;55.14
35758;BME280;21879;50.110;18.900;2023-03-02T22:20:48;98984.42;;;3.34;55.28
35758;BME280;21879;50.110;18.900;2023-03-02T22:31:18;98976.95;;;3.16;55.19
35758;BME280;21879;50.110;18.900;2023-03-02T22:41:43;98969.46;;;3.12;56.27
35758;BME280;21879;50.110;18.900;2023-03-02T22:52:14;98969.46;;;3.05;56.41
35758;BME280;21879;50.110;18.900;2023-03-02T23:02:42;98965.70;;;3.06;56.62
35758;BME280;21879;50.110;18.900;2023-03-02T23:13:08;98957.31;;;3.00;56.36
35758;BME280;21879;50.110;18.900;2023-03-02T23:23:32;98957.00;;;2.81;56.82
35758;BME280;21879;50.110;18.900;2023-03-02T23:33:57;98946.26;;;2.77;57.21
35758;BME280;21879;50.110;18.900;2023-03-02T23:44:21;98926.35;;;2.77;57.61
35758;BME280;21879;50.110;18.900;2023-03-02T23:54:45;98916.56;;;2.70;57.34
